Time;durP1;ratioP1;P1;durP2;ratioP2;P2;SDS_P1;SDS_P2;PMS_P1;PMS_P2;Temp;Humidity;BMP_temperature;BMP_pressure;BME280_temperature;BME280_humidity;BME280_pressure;Samples;Min_cycle;Max_cycle;Signal;HPM_P1;HPM_P2
2020/12/10 00:01:13;;;;;;;;;;;;;;;17.92;61.30;100356.06;5009718;28;1885;-43
2020/12/10 00:03:39;;;;;;;;;;;;;;;17.91;61.25;100341.00;4996047;28;2374;-44
2020/12/10 00:06:04;;;;;;;;;;;;;;;17.87;60.92;100351.97;5007416;28;1837;-43
2020/12/10 00:08:29;;;;;;;;;;;;;;;17.89;61.80;100344.66;5001494;28;1653;-44
2020/12/10 00:10:55;;;;;;;;;;;;;;;17.87;60.56;100343.94;5006922;28;1887;-43
2020/12/10 00:13:20;;;;;;;;;;;;;;;17.87;61.54;100340.44;4996781;28;1679;-44
2020/12/10 00:15:46;;;;;;;;;;;;;;;17.83;61.46;100345.22;5009580;28;1575;-43
2020/12/10 00:18:11;;;;;;;;;;;;;;;17.87;60.05;100354.66;5001029;28;1528;-43
2020/12/10 00:20:36;;;;;;;;;;;;;;;17.86;60.42;100350.25;5003033;28;1850;-43
2020/12/10 00:23:01;;;;;;;;;;;;;;;17.85;60.04;100340.56;5008205;28;1922;-43
2020/12/10 00:25:27;;;;;;;;;;;;;;;17.80;61.18;100342.75;4997399;28;1709;-43
2020/12/10 00:27:52;;;;;;;;;;;;;;;17.79;61.05;100337.56;5008452;28;1732;-44
2020/12/10 00:30:18;;;;;;;;;;;;;;;17.79;61.15;100349.09;5001974;28;1752;-43
2020/12/10 00:32:43;;;;;;;;;;;;;;;17.77;59.78;100339.53;5006464;28;1708;-43
2020/12/10 00:35:09;;;;;;;;;;;;;;;17.73;60.79;100322.91;4999228;28;1827;-43
2020/12/10 00:37:35;;;;;;;;;;;;;;;17.74;60.18;100332.63;5009437;28;1665;-44
2020/12/10 00:40:01;;;;;;;;;;;;;;;17.74;59.85;100329.09;4999835;28;1627;-44
2020/12/10 00:42:26;;;;;;;;;;;;;;;17.73;60.05;100328.28;5004230;28;1989;-43
2020/12/10 00:44:51;;;;;;;;;;;;;;;17.74;60.16;100323.75;5006916;28;1779;-43
2020/12/10 00:47:17;;;;;;;;;;;;;;;17.72;60.63;100320.38;5001339;28;1568;-44
2020/12/10 00:49:42;;;;;;;;;;;;;;;17.74;59.84;100321.09;5013453;28;1549;-44
2020/12/10 00:52:08;;;;;;;;;;;;;;;17.72;60.36;100320.38;5003856;28;1548;-44
2020/12/10 00:54:33;;;;;;;;;;;;;;;17.70;60.39;100302.63;5007013;28;1513;-43
2020/12/10 00:56:58;;;;;;;;;;;;;;;17.72;59.49;100310.50;5010889;28;1706;-43
2020/12/10 00:59:23;;;;;;;;;;;;;;;17.70;60.02;100312.47;5000085;28;1712;-43
2020/12/10 01:01:48;;;;;;;;;;;;;;;17.69;60.29;100308.97;5012994;28;1865;-43
2020/12/10 01:04:14;;;;;;;;;;;;;;;17.68;59.60;100303.75;5004315;28;1910;-43
2020/12/10 01:06:39;;;;;;;;;;;;;;;17.70;59.57;100301.78;5006043;28;1760;-44
2020/12/10 01:09:08;;;;;;;;;;;;;;;17.67;60.18;100294.91;5002393;28;1477;-43
2020/12/10 01:11:33;;;;;;;;;;;;;;;17.66;60.02;100289.69;5012778;28;1691;-44
2020/12/10 01:13:58;;;;;;;;;;;;;;;17.64;59.57;100276.44;5002723;28;1767;-44
2020/12/10 01:16:24;;;;;;;;;;;;;;;17.63;60.03;100285.47;5007965;28;1568;-43
2020/12/10 01:18:50;;;;;;;;;;;;;;;17.65;59.48;100278.16;5009120;28;1556;-43
2020/12/10 01:21:25;;;;;;;;;;;;;;;17.70;59.64;100280.41;5000751;28;1708;-43
2020/12/10 01:23:50;;;;;;;;;;;;;;;17.63;59.25;100273.94;5000779;28;1937;-44
2020/12/10 01:26:16;;;;;;;;;;;;;;;17.65;59.23;100255.91;5008518;28;1299;-43
2020/12/10 01:28:41;;;;;;;;;;;;;;;17.62;59.35;100246.31;5008808;28;1710;-43
2020/12/10 01:31:06;;;;;;;;;;;;;;;17.63;59.09;100242.69;5005010;28;1758;-43
2020/12/10 01:33:31;;;;;;;;;;;;;;;17.59;60.22;100224.41;4996672;28;889;-43
2020/12/10 01:35:57;;;;;;;;;;;;;;;17.61;59.07;100227.78;4996718;28;814;-43
2020/12/10 01:38:22;;;;;;;;;;;;;;;17.59;60.25;100219.06;4996873;28;838;-43
2020/12/10 01:40:52;;;;;;;;;;;;;;;17.60;59.06;100228.75;4996520;28;924;-43
2020/12/10 01:43:17;;;;;;;;;;;;;;;17.54;58.70;100224.78;5007668;28;1894;-43
2020/12/10 01:45:42;;;;;;;;;;;;;;;17.56;59.37;100208.63;5008044;28;1579;-43
2020/12/10 01:48:07;;;;;;;;;;;;;;;17.53;59.19;100208.88;5001387;28;1760;-43
2020/12/10 01:50:33;;;;;;;;;;;;;;;17.59;59.73;100209.19;5011903;28;1600;-43
2020/12/10 01:52:58;;;;;;;;;;;;;;;17.55;59.60;100196.22;5010642;28;1540;-43
2020/12/10 01:55:23;;;;;;;;;;;;;;;17.51;59.68;100190.34;5005355;28;1509;-43
2020/12/10 01:57:49;;;;;;;;;;;;;;;17.53;59.74;100176.81;5014258;28;1682;-44
2020/12/10 02:00:14;;;;;;;;;;;;;;;17.52;59.17;100175.97;5000346;28;1833;-44
2020/12/10 02:02:39;;;;;;;;;;;;;;;17.51;59.00;100168.94;5012073;28;1910;-43
2020/12/10 02:05:04;;;;;;;;;;;;;;;17.50;59.13;100172.59;5002080;28;1676;-43
2020/12/10 02:07:30;;;;;;;;;;;;;;;17.52;59.30;100164.44;5005859;28;1683;-43
2020/12/10 02:09:55;;;;;;;;;;;;;;;17.48;59.31;100159.34;5008919;28;1843;-44
2020/12/10 02:12:20;;;;;;;;;;;;;;;17.50;58.40;100161.91;5000352;28;1525;-44
2020/12/10 02:14:45;;;;;;;;;;;;;;;17.49;58.66;100179.78;5001789;28;1536;-44
2020/12/10 02:17:11;;;;;;;;;;;;;;;17.49;58.89;100161.06;5005599;28;1587;-44
2020/12/10 02:19:36;;;;;;;;;;;;;;;17.55;59.20;100174.84;4997566;28;1774;-43
2020/12/10 02:22:01;;;;;;;;;;;;;;;17.55;60.25;100175.69;5004584;28;1746;-44
2020/12/10 02:24:26;;;;;;;;;;;;;;;17.56;58.87;100157.81;5015298;28;1890;-43
2020/12/10 02:26:52;;;;;;;;;;;;;;;17.56;59.74;100155.16;5015599;28;852;-43
2020/12/10 02:29:18;;;;;;;;;;;;;;;17.54;58.94;100155.28;5021725;28;1615;-43
2020/12/10 02:31:43;;;;;;;;;;;;;;;17.50;58.99;100167.25;4985902;28;10749;-44
2020/12/10 02:34:09;;;;;;;;;;;;;;;17.52;58.89;100165.28;5024931;28;1445;-44
2020/12/10 02:36:34;;;;;;;;;;;;;;;17.49;58.63;100163.75;5024104;28;1286;-43
2020/12/10 02:39:00;;;;;;;;;;;;;;;17.51;58.55;100158.25;5022367;28;1532;-44
2020/12/10 02:41:25;;;;;;;;;;;;;;;17.48;58.95;100146.00;5024721;28;1403;-44
2020/12/10 02:43:51;;;;;;;;;;;;;;;17.50;58.73;100152.03;5025579;28;1902;-43
2020/12/10 02:46:16;;;;;;;;;;;;;;;17.52;59.40;100153.75;5025580;28;1777;-44
2020/12/10 02:48:42;;;;;;;;;;;;;;;17.52;59.35;100161.75;5003215;28;1584;-43
2020/12/10 02:51:07;;;;;;;;;;;;;;;17.47;59.25;100168.38;5000501;28;1509;-43
2020/12/10 02:53:33;;;;;;;;;;;;;;;17.48;58.61;100171.88;5010856;28;1564;-44
2020/12/10 02:55:58;;;;;;;;;;;;;;;17.47;59.52;100179.06;4999851;28;1583;-43
2020/12/10 02:58:24;;;;;;;;;;;;;;;17.43;58.62;100176.81;5005171;28;1560;-43
2020/12/10 03:00:49;;;;;;;;;;;;;;;17.45;58.61;100181.03;5007217;28;1706;-43
2020/12/10 03:03:14;;;;;;;;;;;;;;;17.45;59.17;100181.03;4998462;28;1910;-43
2020/12/10 03:05:39;;;;;;;;;;;;;;;17.41;59.37;100184.97;5010797;28;1816;-44
2020/12/10 03:08:05;;;;;;;;;;;;;;;17.42;58.92;100197.34;4995388;28;1608;-43
2020/12/10 03:10:31;;;;;;;;;;;;;;;17.40;58.18;100185.94;5004025;28;1509;-43
2020/12/10 03:12:56;;;;;;;;;;;;;;;17.40;59.29;100193.13;5002047;28;1740;-43
2020/12/10 03:15:21;;;;;;;;;;;;;;;17.40;59.10;100193.13;5011076;28;1739;-44
2020/12/10 03:17:46;;;;;;;;;;;;;;;17.39;58.82;100200.31;4998925;28;1720;-43
2020/12/10 03:20:12;;;;;;;;;;;;;;;17.37;59.22;100206.75;5007118;28;1667;-43
2020/12/10 03:22:37;;;;;;;;;;;;;;;17.41;57.71;100221.56;5005405;28;1955;-43
2020/12/10 03:25:02;;;;;;;;;;;;;;;17.40;58.81;100236.72;5000001;28;1587;-43
2020/12/10 03:27:27;;;;;;;;;;;;;;;17.42;58.59;100229.41;5010526;28;1822;-43
2020/12/10 03:29:53;;;;;;;;;;;;;;;17.41;59.62;100225.06;4999420;28;1654;-44
2020/12/10 03:32:18;;;;;;;;;;;;;;;17.42;59.50;100215.22;5006653;28;1553;-43
2020/12/10 03:34:43;;;;;;;;;;;;;;;17.43;60.60;100222.25;5004890;28;1525;-43
2020/12/10 03:37:08;;;;;;;;;;;;;;;17.45;59.75;100242.50;4999096;28;1688;-43
2020/12/10 03:39:34;;;;;;;;;;;;;;;17.43;60.16;100235.63;5010558;28;1744;-43
2020/12/10 03:41:59;;;;;;;;;;;;;;;17.42;59.79;100250.78;5000193;28;1485;-43
2020/12/10 03:44:24;;;;;;;;;;;;;;;17.44;59.37;100264.88;5005302;28;1947;-43
2020/12/10 03:46:50;;;;;;;;;;;;;;;17.30;61.72;100258.09;5006932;28;1520;-43
2020/12/10 03:49:15;;;;;;;;;;;;;;;17.14;61.74;100275.63;4997546;28;1672;-43
2020/12/10 03:51:40;;;;;;;;;;;;;;;17.04;62.18;100279.09;5011303;28;1633;-43
2020/12/10 03:54:06;;;;;;;;;;;;;;;17.03;64.19;100290.78;5007484;28;1617;-43
2020/12/10 03:56:31;;;;;;;;;;;;;;;17.00;63.49;100296.38;4994243;28;794;-43
2020/12/10 03:59:00;;;;;;;;;;;;;;;16.99;62.73;100292.03;4994489;28;838;-43
2020/12/10 04:01:26;;;;;;;;;;;;;;;16.95;63.48;100284.41;5010747;28;1592;-43
2020/12/10 04:03:59;;;;;;;;;;;;;;;16.94;64.16;100299.59;4940231;28;10000651;-44
2020/12/10 04:06:25;;;;;;;;;;;;;;;16.94;65.33;100304.94;4648224;28;10000497;-44
2020/12/10 04:08:51;;;;;;;;;;;;;;;16.96;64.40;100294.94;4994335;28;1763;-44
2020/12/10 04:11:16;;;;;;;;;;;;;;;16.96;63.88;100294.94;5000255;28;1033;-43
2020/12/10 04:13:41;;;;;;;;;;;;;;;16.92;63.50;100269.50;4998200;28;1688;-45
2020/12/10 04:16:07;;;;;;;;;;;;;;;16.90;63.68;100282.97;4996188;28;1848;-44
2020/12/10 04:18:36;;;;;;;;;;;;;;;16.86;63.82;100270.03;5003102;28;2101;-43
2020/12/10 04:21:01;;;;;;;;;;;;;;;16.86;64.42;100283.38;5032692;28;1638;-43
2020/12/10 04:23:26;;;;;;;;;;;;;;;16.83;63.72;100275.63;5035715;28;1902;-43
2020/12/10 04:25:52;;;;;;;;;;;;;;;16.83;63.71;100271.16;5024510;28;1764;-43
2020/12/10 04:28:17;;;;;;;;;;;;;;;16.83;63.94;100275.63;4998120;28;818;-43
2020/12/10 04:30:42;;;;;;;;;;;;;;;16.83;64.71;100262.28;4998141;28;988;-43
2020/12/10 04:33:08;;;;;;;;;;;;;;;16.80;63.77;100258.03;5009961;28;1712;-43
2020/12/10 04:35:33;;;;;;;;;;;;;;;16.79;64.27;100261.69;5017443;28;983;-43
2020/12/10 04:37:58;;;;;;;;;;;;;;;16.79;63.96;100290.19;5017639;28;826;-43
2020/12/10 04:40:23;;;;;;;;;;;;;;;16.78;64.28;100286.69;5000601;28;1619;-44
2020/12/10 04:42:49;;;;;;;;;;;;;;;16.69;64.66;100264.31;5012850;28;1878;-43
2020/12/10 04:45:14;;;;;;;;;;;;;;;16.68;64.08;100269.78;5005349;28;1481;-43
2020/12/10 04:47:40;;;;;;;;;;;;;;;16.63;65.21;100286.19;5012418;28;1525;-43
2020/12/10 04:50:15;;;;;;;;;;;;;;;16.65;65.29;100276.22;5011532;28;1673;-43
2020/12/10 04:52:40;;;;;;;;;;;;;;;16.63;64.99;100280.00;5000645;28;1303;-43
2020/12/10 04:55:06;;;;;;;;;;;;;;;16.65;64.34;100289.56;5013753;28;1559;-43
2020/12/10 04:57:31;;;;;;;;;;;;;;;16.64;65.30;100287.88;5007260;28;1710;-43
2020/12/10 04:59:57;;;;;;;;;;;;;;;16.66;64.86;100291.25;5010812;28;1533;-43
2020/12/10 05:02:22;;;;;;;;;;;;;;;16.67;65.21;100284.94;5000327;28;1553;-43
2020/12/10 05:04:47;;;;;;;;;;;;;;;16.63;64.44;100275.50;5012586;28;1910;-43
2020/12/10 05:07:13;;;;;;;;;;;;;;;16.64;64.33;100279.88;5004671;28;1708;-43
2020/12/10 05:09:38;;;;;;;;;;;;;;;16.63;64.36;100278.19;5005628;28;1759;-43
2020/12/10 05:12:16;;;;;;;;;;;;;;;16.64;64.42;100261.19;5008663;28;1673;-43
2020/12/10 05:14:47;;;;;;;;;;;;;;;16.64;65.23;100271.00;4997942;28;1505;-43
2020/12/10 05:17:14;;;;;;;;;;;;;;;16.62;64.63;100272.97;4996895;28;1655;-43
2020/12/10 05:19:40;;;;;;;;;;;;;;;16.64;65.24;100271.84;5007998;28;1624;-43
2020/12/10 05:22:06;;;;;;;;;;;;;;;16.63;64.38;100254.16;5001889;28;1703;-43
2020/12/10 05:24:31;;;;;;;;;;;;;;;16.66;64.47;100269.91;5012849;28;2044;-43
2020/12/10 05:27:15;;;;;;;;;;;;;;;16.64;65.28;100281.69;5002192;28;1673;-43
2020/12/10 05:29:40;;;;;;;;;;;;;;;16.61;64.28;100282.81;5005319;28;1682;-43
2020/12/10 05:32:06;;;;;;;;;;;;;;;16.62;64.22;100295.16;5010650;28;1591;-43
2020/12/10 05:34:31;;;;;;;;;;;;;;;16.62;64.74;100297.00;5000078;28;1536;-43
2020/12/10 05:36:57;;;;;;;;;;;;;;;16.59;64.11;100290.09;5011516;28;1508;-43
2020/12/10 05:39:22;;;;;;;;;;;;;;;16.62;65.33;100300.50;5005525;28;1521;-43
2020/12/10 05:41:52;;;;;;;;;;;;;;;16.63;65.29;100296.88;5004256;28;1541;-43
2020/12/10 05:44:17;;;;;;;;;;;;;;;16.56;65.00;100300.19;5012856;28;1885;-44
2020/12/10 05:46:43;;;;;;;;;;;;;;;16.60;64.80;100309.63;5000422;28;1505;-43
2020/12/10 05:49:10;;;;;;;;;;;;;;;16.58;64.83;100304.41;5009149;28;1508;-43
2020/12/10 05:51:42;;;;;;;;;;;;;;;16.56;64.36;100317.03;5007308;28;1524;-43
2020/12/10 05:54:09;;;;;;;;;;;;;;;16.58;64.72;100323.09;5000724;28;1648;-43
2020/12/10 05:56:38;;;;;;;;;;;;;;;16.56;64.57;100322.38;5011321;28;1579;-43
2020/12/10 05:59:05;;;;;;;;;;;;;;;16.50;65.51;100321.06;4997738;28;1743;-43
2020/12/10 06:01:34;;;;;;;;;;;;;;;16.46;65.73;100321.47;5005996;28;1761;-43
2020/12/10 06:04:00;;;;;;;;;;;;;;;16.45;65.21;100330.44;5006262;28;1973;-43
2020/12/10 06:06:30;;;;;;;;;;;;;;;16.42;65.04;100336.06;5000480;28;1761;-43
2020/12/10 06:09:13;;;;;;;;;;;;;;;16.43;64.83;100335.06;5010407;28;1501;-43
2020/12/10 06:11:39;;;;;;;;;;;;;;;16.43;65.63;100340.41;5007126;28;1477;-43
2020/12/10 06:14:05;;;;;;;;;;;;;;;16.45;65.22;100335.78;5001471;28;1496;-43
2020/12/10 06:16:30;;;;;;;;;;;;;;;16.51;64.57;100351.28;5012074;28;1533;-43
2020/12/10 06:19:01;;;;;;;;;;;;;;;16.46;65.34;100332.16;5000789;28;1500;-43
2020/12/10 06:21:36;;;;;;;;;;;;;;;16.44;64.53;100328.78;5006090;28;1640;-43
2020/12/10 06:24:17;;;;;;;;;;;;;;;16.46;65.62;100341.00;5009675;28;1902;-43
2020/12/10 06:26:43;;;;;;;;;;;;;;;16.47;65.58;100345.38;4999411;28;1337;-43
2020/12/10 06:29:16;;;;;;;;;;;;;;;16.45;65.54;100362.47;5008402;28;1688;-43
2020/12/10 06:31:59;;;;;;;;;;;;;;;16.45;65.43;100352.66;5006516;28;1489;-43
2020/12/10 06:34:31;;;;;;;;;;;;;;;16.44;65.00;100364.31;5009047;28;1556;-43
2020/12/10 06:37:15;;;;;;;;;;;;;;;16.43;65.59;100356.41;5009817;28;1571;-43
2020/12/10 06:39:40;;;;;;;;;;;;;;;16.44;64.86;100366.13;5006821;28;1530;-43
2020/12/10 06:42:06;;;;;;;;;;;;;;;16.44;65.51;100371.47;5001476;28;1617;-43
2020/12/10 06:44:32;;;;;;;;;;;;;;;16.46;64.66;100385.53;5002680;28;1898;-43
2020/12/10 06:46:57;;;;;;;;;;;;;;;16.43;64.46;100380.44;5010004;28;2026;-44
2020/12/10 06:49:29;;;;;;;;;;;;;;;16.45;64.51;100357.13;5017471;28;10658;-43
2020/12/10 06:52:15;;;;;;;;;;;;;;;16.42;65.32;100362.75;5033558;28;1367;-43
2020/12/10 06:54:59;;;;;;;;;;;;;;;16.45;66.40;100370.47;5018001;28;1779;-43
2020/12/10 06:57:24;;;;;;;;;;;;;;;16.65;65.99;100393.69;5025260;28;1480;-42
2020/12/10 06:59:51;;;;;;;;;;;;;;;16.56;64.89;100386.44;5027815;28;1505;-42
2020/12/10 07:02:19;;;;;;;;;;;;;;;16.54;65.34;100385.72;5017801;28;1695;-43
2020/12/10 07:07:14;;;;;;;;;;;;;;;16.51;67.68;100385.97;5032286;28;1437;-43
2020/12/10 07:09:48;;;;;;;;;;;;;;;16.53;67.19;100402.72;5029420;28;1551;-43
2020/12/10 07:12:17;;;;;;;;;;;;;;;16.48;66.22;100383.59;5031206;28;1732;-42
2020/12/10 07:14:43;;;;;;;;;;;;;;;16.52;68.30;100394.84;5037844;28;1301;-42
2020/12/10 07:17:10;;;;;;;;;;;;;;;16.66;67.15;100398.03;5044434;28;1277;-42
2020/12/10 07:19:35;;;;;;;;;;;;;;;16.70;65.71;100372.78;5044461;28;1401;-43
2020/12/10 07:22:00;;;;;;;;;;;;;;;16.59;67.02;100382.66;5042494;28;1352;-43
2020/12/10 07:24:25;;;;;;;;;;;;;;;16.53;67.60;100384.03;5036254;28;1886;-43
2020/12/10 07:26:51;;;;;;;;;;;;;;;16.64;66.14;100385.81;5042296;28;1739;-44
2020/12/10 07:29:16;;;;;;;;;;;;;;;17.00;65.31;100389.88;5043513;28;1476;-44
2020/12/10 07:31:42;;;;;;;;;;;;;;;17.25;65.12;100382.44;5036377;28;1369;-44
2020/12/10 07:34:11;;;;;;;;;;;;;;;17.39;64.71;100374.03;5042459;28;1308;-44
2020/12/10 07:36:44;;;;;;;;;;;;;;;17.59;64.59;100358.06;5042252;28;1369;-45
2020/12/10 07:39:10;;;;;;;;;;;;;;;17.81;64.39;100368.53;5041867;28;1402;-45
2020/12/10 07:41:38;;;;;;;;;;;;;;;17.99;63.85;100360.72;5041201;28;1409;-44
2020/12/10 07:44:03;;;;;;;;;;;;;;;18.19;63.30;100355.38;5045143;28;1957;-44
2020/12/10 07:46:34;;;;;;;;;;;;;;;18.39;62.59;100357.06;5040747;28;1312;-44
2020/12/10 07:48:59;;;;;;;;;;;;;;;18.71;62.24;100371.97;5033668;28;828;-44
2020/12/10 07:51:24;;;;;;;;;;;;;;;18.74;64.93;100366.34;5032978;28;1932;-44
2020/12/10 07:53:49;;;;;;;;;;;;;;;18.75;66.56;100351.13;5034051;28;1466;-44
2020/12/10 07:56:18;;;;;;;;;;;;;;;18.90;64.49;100351.53;5025633;28;1424;-44
2020/12/10 07:58:47;;;;;;;;;;;;;;;18.88;63.83;100365.09;5028487;28;1774;-44
2020/12/10 08:01:13;;;;;;;;;;;;;;;18.97;63.72;100377.59;5030744;28;1513;-44
2020/12/10 08:03:56;;;;;;;;;;;;;;;19.06;65.46;100381.25;5040677;28;1906;-44
2020/12/10 08:06:29;;;;;;;;;;;;;;;19.02;66.17;100361.94;5034675;28;1336;-44
2020/12/10 08:09:01;;;;;;;;;;;;;;;19.05;64.88;100375.03;5025753;28;1769;-44
2020/12/10 08:11:27;;;;;;;;;;;;;;;19.03;64.80;100392.25;5022254;28;1468;-44
2020/12/10 08:13:58;;;;;;;;;;;;;;;19.10;63.86;100403.25;5025443;28;1765;-44
2020/12/10 08:16:24;;;;;;;;;;;;;;;19.09;64.84;100389.00;5019864;28;1756;-45
2020/12/10 08:18:49;;;;;;;;;;;;;;;19.05;63.76;100395.63;5019659;28;1909;-44
2020/12/10 08:21:31;;;;;;;;;;;;;;;18.93;65.03;100394.13;5018316;28;1775;-44
2020/12/10 08:23:56;;;;;;;;;;;;;;;18.84;65.45;100390.44;5018294;28;1920;-44
2020/12/10 08:26:21;;;;;;;;;;;;;;;18.77;65.58;100408.06;5015466;28;1610;-47
2020/12/10 08:28:54;;;;;;;;;;;;;;;18.69;65.25;100395.38;5016663;28;1498;-44
2020/12/10 08:31:20;;;;;;;;;;;;;;;18.72;65.24;100391.56;5017871;28;1698;-44
2020/12/10 08:33:45;;;;;;;;;;;;;;;18.68;65.43;100394.56;5013228;28;1683;-44
2020/12/10 08:36:21;;;;;;;;;;;;;;;18.72;64.63;100400.47;5014848;28;1697;-43
2020/12/10 08:38:51;;;;;;;;;;;;;;;18.72;64.71;100394.25;5016704;28;1591;-44
2020/12/10 08:41:22;;;;;;;;;;;;;;;18.74;64.53;100392.28;5016599;28;1447;-44
2020/12/10 08:43:54;;;;;;;;;;;;;;;18.80;64.63;100375.66;5017748;28;1890;-43
2020/12/10 08:46:19;;;;;;;;;;;;;;;18.73;64.55;100379.88;5017119;28;1677;-44
2020/12/10 08:48:44;;;;;;;;;;;;;;;18.72;64.50;100378.19;5020028;28;1463;-44
2020/12/10 08:51:10;;;;;;;;;;;;;;;18.61;64.83;100372.00;5014121;28;1667;-43
2020/12/10 08:53:35;;;;;;;;;;;;;;;18.55;65.33;100388.63;5015528;28;1629;-43
2020/12/10 08:56:00;;;;;;;;;;;;;;;18.48;65.46;100387.50;5019616;28;1809;-43
2020/12/10 08:58:27;;;;;;;;;;;;;;;18.51;65.13;100391.75;5021310;28;1659;-43
2020/12/10 09:00:54;;;;;;;;;;;;;;;18.47;64.96;100381.31;5021878;28;1746;-43
2020/12/10 09:03:20;;;;;;;;;;;;;;;18.44;65.08;100375.38;5010661;28;1965;-43
2020/12/10 09:05:45;;;;;;;;;;;;;;;18.39;65.36;100391.03;5019920;28;1729;-44
2020/12/10 09:08:12;;;;;;;;;;;;;;;18.32;65.94;100366.63;5018057;28;1508;-44
2020/12/10 09:10:37;;;;;;;;;;;;;;;18.32;65.96;100387.22;5021936;28;1908;-43
2020/12/10 09:13:02;;;;;;;;;;;;;;;18.24;65.00;100378.06;5023617;28;1768;-43
2020/12/10 09:15:28;;;;;;;;;;;;;;;18.26;65.58;100378.78;5016588;28;1803;-44
2020/12/10 09:17:53;;;;;;;;;;;;;;;18.28;65.12;100370.59;5025488;28;1613;-43
2020/12/10 09:20:19;;;;;;;;;;;;;;;18.27;65.24;100368.91;5018459;28;1833;-43
2020/12/10 09:22:45;;;;;;;;;;;;;;;18.18;65.76;100365.22;5025021;28;1914;-43
2020/12/10 09:25:10;;;;;;;;;;;;;;;18.14;65.18;100357.63;5016628;28;1603;-45
2020/12/10 09:27:36;;;;;;;;;;;;;;;18.13;64.28;100354.13;5022147;28;1565;-44
2020/12/10 09:30:03;;;;;;;;;;;;;;;18.15;65.60;100344.13;5018875;28;1582;-43
2020/12/10 09:32:34;;;;;;;;;;;;;;;18.19;65.47;100333.97;5023297;28;1678;-44
2020/12/10 09:34:59;;;;;;;;;;;;;;;18.20;65.68;100352.56;5020068;28;1644;-43
2020/12/10 09:37:24;;;;;;;;;;;;;;;18.21;65.71;100343.56;5023295;28;1710;-43
2020/12/10 09:39:49;;;;;;;;;;;;;;;18.22;65.22;100345.25;5020040;28;1801;-43
2020/12/10 09:42:15;;;;;;;;;;;;;;;18.24;66.03;100342.41;5020493;28;1744;-43
2020/12/10 09:44:43;;;;;;;;;;;;;;;18.27;65.80;100336.78;5024668;28;1886;-45
2020/12/10 09:47:10;;;;;;;;;;;;;;;18.39;65.09;100332.97;5023624;28;1892;-44
2020/12/10 09:49:36;;;;;;;;;;;;;;;18.56;64.66;100331.44;4331608;28;10000926;-45
2020/12/10 09:52:02;;;;;;;;;;;;;;;18.58;64.69;100344.66;5009303;28;3139;-43
2020/12/10 09:59:28;;;;;;;;;;;;;;;18.62;64.27;100338.88;5031312;28;1600;-44
2020/12/10 10:01:54;;;;;;;;;;;;;;;18.66;64.16;100342.97;5028944;28;1880;-44
2020/12/10 10:04:19;;;;;;;;;;;;;;;18.59;64.58;100299.00;5030796;28;1971;-44
2020/12/10 10:06:45;;;;;;;;;;;;;;;18.70;64.41;100316.72;5038362;28;2038;-44
2020/12/10 10:09:11;;;;;;;;;;;;;;;18.93;63.93;100309.22;5037011;28;2082;-44
2020/12/10 10:11:36;;;;;;;;;;;;;;;18.92;64.43;100320.94;5036433;28;1807;-43
2020/12/10 10:14:01;;;;;;;;;;;;;;;18.90;64.36;100324.75;5035866;28;3229;-44
2020/12/10 10:16:30;;;;;;;;;;;;;;;18.95;64.15;100327.84;5040264;28;1895;-44
2020/12/10 10:18:56;;;;;;;;;;;;;;;18.84;64.23;100335.06;5039752;28;1824;-44
2020/12/10 10:21:22;;;;;;;;;;;;;;;18.78;65.54;100321.34;5037893;28;1468;-44
2020/12/10 10:23:48;;;;;;;;;;;;;;;18.72;65.64;100325.47;5051096;28;1989;-44
2020/12/10 10:26:13;;;;;;;;;;;;;;;18.74;65.89;100314.59;5056366;28;1565;-43
2020/12/10 10:28:39;;;;;;;;;;;;;;;18.80;64.95;100306.00;5057255;28;1542;-44
2020/12/10 10:31:06;;;;;;;;;;;;;;;18.68;67.45;100313.34;5052699;28;1507;-44
2020/12/10 10:33:31;;;;;;;;;;;;;;;18.65;66.47;100306.44;5059161;28;1567;-44
2020/12/10 10:35:57;;;;;;;;;;;;;;;18.56;66.48;100315.34;5063973;28;1495;-44
2020/12/10 10:38:22;;;;;;;;;;;;;;;18.61;66.69;100305.03;5056768;28;1637;-44
2020/12/10 10:40:47;;;;;;;;;;;;;;;18.60;67.07;100300.69;5058826;28;2063;-44
2020/12/10 10:43:12;;;;;;;;;;;;;;;18.48;67.53;100280.41;5058217;28;1953;-44
2020/12/10 10:45:38;;;;;;;;;;;;;;;18.43;68.07;100277.31;5058141;28;1580;-44
2020/12/10 10:48:03;;;;;;;;;;;;;;;18.36;67.34;100289.59;5057546;28;1726;-45
2020/12/10 10:50:28;;;;;;;;;;;;;;;18.39;66.90;100294.66;5058413;28;1578;-45
2020/12/10 10:52:53;;;;;;;;;;;;;;;18.42;66.52;100280.97;5049216;28;1648;-44
2020/12/10 10:55:19;;;;;;;;;;;;;;;18.45;66.28;100275.34;5062436;28;1632;-44
2020/12/10 10:57:44;;;;;;;;;;;;;;;18.36;66.87;100281.56;5059489;28;1472;-43
2020/12/10 11:00:09;;;;;;;;;;;;;;;18.35;66.81;100282.56;5061202;28;1511;-43
2020/12/10 11:02:34;;;;;;;;;;;;;;;18.24;66.32;100288.88;5057113;28;1443;-45
2020/12/10 11:05:00;;;;;;;;;;;;;;;18.35;66.12;100282.56;5052437;28;1914;-44
2020/12/10 11:07:25;;;;;;;;;;;;;;;18.39;65.69;100278.59;5061282;28;1705;-43
2020/12/10 11:09:50;;;;;;;;;;;;;;;18.40;65.25;100280.28;5060951;28;2010;-45
2020/12/10 11:12:15;;;;;;;;;;;;;;;18.31;65.76;100286.50;5054622;28;1657;-44
2020/12/10 11:14:41;;;;;;;;;;;;;;;18.31;66.21;100267.78;5063604;28;1573;-43
2020/12/10 11:17:06;;;;;;;;;;;;;;;18.31;66.54;100283.81;5061997;28;1697;-44
2020/12/10 11:19:31;;;;;;;;;;;;;;;18.28;66.42;100275.09;5055467;28;1573;-44
2020/12/10 11:21:56;;;;;;;;;;;;;;;18.28;68.07;100268.88;5057777;28;1462;-44
2020/12/10 11:24:22;;;;;;;;;;;;;;;18.27;67.54;100280.59;5058236;28;1894;-44
2020/12/10 11:26:50;;;;;;;;;;;;;;;18.25;68.47;100272.69;5063008;28;1582;-44
2020/12/10 11:29:15;;;;;;;;;;;;;;;18.28;68.44;100282.25;5052263;28;1416;-44
2020/12/10 11:31:41;;;;;;;;;;;;;;;18.33;67.39;100274.66;5061403;28;1648;-44
2020/12/10 11:34:06;;;;;;;;;;;;;;;18.47;66.84;100273.38;5062917;28;1672;-44
2020/12/10 11:36:31;;;;;;;;;;;;;;;18.41;67.55;100274.78;5057709;28;1832;-44
2020/12/10 11:38:56;;;;;;;;;;;;;;;18.65;66.31;100266.28;5062776;28;1877;-44
2020/12/10 11:41:22;;;;;;;;;;;;;;;18.67;66.31;100268.81;5060031;28;1542;-44
2020/12/10 11:43:47;;;;;;;;;;;;;;;18.71;65.75;100269.38;5063902;28;1941;-44
2020/12/10 11:46:13;;;;;;;;;;;;;;;18.73;65.89;100268.22;5059649;28;1570;-44
2020/12/10 11:48:38;;;;;;;;;;;;;;;18.85;66.38;100256.38;5064291;28;1582;-44
2020/12/10 11:51:04;;;;;;;;;;;;;;;18.77;66.46;100263.44;5064836;28;1802;-44
2020/12/10 11:53:33;;;;;;;;;;;;;;;18.74;65.75;100251.19;5058942;28;1535;-45
2020/12/10 11:55:59;;;;;;;;;;;;;;;18.76;66.05;100264.41;5056103;28;1532;-39
2020/12/10 11:58:24;;;;;;;;;;;;;;;18.77;66.24;100252.72;5056127;28;2161;-39
2020/12/10 12:00:49;;;;;;;;;;;;;;;18.74;66.20;100253.84;5057504;28;1785;-39
2020/12/10 12:03:15;;;;;;;;;;;;;;;18.80;66.40;100263.16;5054967;28;1956;-41
2020/12/10 12:05:40;;;;;;;;;;;;;;;18.69;67.34;100254.28;5040869;28;1688;-38
2020/12/10 12:08:05;;;;;;;;;;;;;;;18.65;67.13;100252.03;5064635;28;1637;-39
2020/12/10 12:10:30;;;;;;;;;;;;;;;18.63;67.46;100249.50;5055648;28;1518;-39
2020/12/10 12:12:55;;;;;;;;;;;;;;;18.61;68.08;100247.97;5062155;28;1883;-39
2020/12/10 12:15:21;;;;;;;;;;;;;;;18.62;68.30;100250.50;5055190;28;1507;-39
2020/12/10 12:17:46;;;;;;;;;;;;;;;18.69;67.59;100248.91;5054317;28;1920;-39
2020/12/10 12:20:12;;;;;;;;;;;;;;;18.71;67.95;100245.25;5060193;28;1695;-48
2020/12/10 12:22:38;;;;;;;;;;;;;;;18.68;67.25;100247.25;5056138;28;1664;-44
2020/12/10 12:25:03;;;;;;;;;;;;;;;18.68;67.92;100244.56;5062722;28;1882;-46
2020/12/10 12:27:29;;;;;;;;;;;;;;;18.63;67.78;100252.19;5063808;28;1712;-46
2020/12/10 12:29:54;;;;;;;;;;;;;;;18.59;67.92;100247.28;5065604;28;1515;-46
2020/12/10 12:32:20;;;;;;;;;;;;;;;18.63;67.31;100254.84;5066201;28;1577;-46
2020/12/10 12:34:45;;;;;;;;;;;;;;;18.65;67.13;100235.97;5062469;28;1674;-49
2020/12/10 12:37:10;;;;;;;;;;;;;;;18.68;66.74;100233.00;5059941;28;1802;-46
2020/12/10 12:39:35;;;;;;;;;;;;;;;18.82;66.43;100223.66;5054559;28;1436;-46
2020/12/10 12:42:04;;;;;;;;;;;;;;;18.86;65.96;100225.06;5064765;28;1672;-46
2020/12/10 12:44:29;;;;;;;;;;;;;;;18.84;66.38;100229.72;5066651;28;1885;-47
2020/12/10 12:46:55;;;;;;;;;;;;;;;18.77;66.45;100231.28;5063418;28;1667;-48
2020/12/10 12:49:20;;;;;;;;;;;;;;;18.72;66.37;100229.06;5060723;28;1402;-48
2020/12/10 12:51:52;;;;;;;;;;;;;;;18.67;66.31;100226.78;5058533;28;1591;-49